sensor_id;sensor_type;location;lat;lon;timestamp;pressure;altitude;pressure_sealevel;temperature;humidity
63399;BME280;49533;-34.520;150.798;2022-09-03T00:00:02;101543.63;;;11.84;65.29
63399;BME280;49533;-34.520;150.798;2022-09-03T00:02:46;101551.38;;;11.71;67.47
63399;BME280;49533;-34.520;150.798;2022-09-03T00:05:36;101557.69;;;11.67;68.33
63399;BME280;49533;-34.520;150.798;2022-09-03T00:08:16;101548.41;;;11.68;68.97
63399;BME280;49533;-34.520;150.798;2022-09-03T00:10:53;101555.13;;;11.75;67.97
63399;BME280;49533;-34.520;150.798;2022-09-03T00:13:31;101555.59;;;11.83;67.02
63399;BME280;49533;-34.520;150.798;2022-09-03T00:15:59;101546.84;;;11.86;66.68
63399;BME280;49533;-34.520;150.798;2022-09-03T00:18:32;101552.03;;;11.87;66.38
63399;BME280;49533;-34.520;150.798;2022-09-03T00:21:08;101561.53;;;11.90;66.28
63399;BME280;49533;-34.520;150.798;2022-09-03T00:23:40;101549.53;;;11.91;66.11
63399;BME280;49533;-34.520;150.798;2022-09-03T00:26:21;101553.91;;;11.92;65.85
63399;BME280;49533;-34.520;150.798;2022-09-03T00:28:58;101555.50;;;11.93;65.81
63399;BME280;49533;-34.520;150.798;2022-09-03T00:31:36;101569.66;;;11.95;66.00
63399;BME280;49533;-34.520;150.798;2022-09-03T00:34:16;101576.38;;;11.79;69.54
63399;BME280;49533;-34.520;150.798;2022-09-03T00:36:46;101582.19;;;11.67;70.24
63399;BME280;49533;-34.520;150.798;2022-09-03T00:39:15;101586.06;;;11.61;71.19
63399;BME280;49533;-34.520;150.798;2022-09-03T00:41:59;101583.91;;;11.58;71.60
63399;BME280;49533;-34.520;150.798;2022-09-03T00:50:49;101581.53;;;11.51;73.18
63399;BME280;49533;-34.520;150.798;2022-09-03T00:53:33;101596.22;;;11.50;73.39
63399;BME280;49533;-34.520;150.798;2022-09-03T00:56:22;101585.13;;;11.46;73.31
63399;BME280;49533;-34.520;150.798;2022-09-03T00:59:13;101594.63;;;11.49;73.49
63399;BME280;49533;-34.520;150.798;2022-09-03T01:01:56;101592.00;;;11.39;74.62
63399;BME280;49533;-34.520;150.798;2022-09-03T01:04:45;101600.16;;;11.39;74.46
63399;BME280;49533;-34.520;150.798;2022-09-03T01:07:35;101592.22;;;11.42;74.55
63399;BME280;49533;-34.520;150.798;2022-09-03T01:10:21;101592.25;;;11.37;75.01
63399;BME280;49533;-34.520;150.798;2022-09-03T01:13:09;101585.97;;;11.42;75.08
63399;BME280;49533;-34.520;150.798;2022-09-03T01:15:58;101586.97;;;11.51;74.42
63399;BME280;49533;-34.520;150.798;2022-09-03T01:18:44;101583.47;;;11.50;74.86
63399;BME280;49533;-34.520;150.798;2022-09-03T01:21:38;101588.69;;;11.42;75.59
63399;BME280;49533;-34.520;150.798;2022-09-03T01:24:44;101585.69;;;11.43;75.55
63399;BME280;49533;-34.520;150.798;2022-09-03T01:30:12;101577.84;;;11.37;76.52
63399;BME280;49533;-34.520;150.798;2022-09-03T01:32:57;101576.78;;;11.38;76.67
63399;BME280;49533;-34.520;150.798;2022-09-03T01:35:47;101561.25;;;11.38;76.71
63399;BME280;49533;-34.520;150.798;2022-09-03T01:38:32;101556.00;;;11.47;76.29
63399;BME280;49533;-34.520;150.798;2022-09-03T01:41:25;101542.38;;;11.47;76.47
63399;BME280;49533;-34.520;150.798;2022-09-03T01:44:22;101540.19;;;11.49;76.77
63399;BME280;49533;-34.520;150.798;2022-09-03T01:47:15;101522.25;;;11.48;76.84
63399;BME280;49533;-34.520;150.798;2022-09-03T01:49:54;101518.09;;;11.56;76.13
63399;BME280;49533;-34.520;150.798;2022-09-03T01:56:01;101505.81;;;11.58;76.40
63399;BME280;49533;-34.520;150.798;2022-09-03T01:58:30;101502.19;;;11.63;76.65
63399;BME280;49533;-34.520;150.798;2022-09-03T02:01:04;101482.84;;;11.64;76.90
63399;BME280;49533;-34.520;150.798;2022-09-03T02:03:37;101492.09;;;11.68;76.81
63399;BME280;49533;-34.520;150.798;2022-09-03T02:06:07;101484.13;;;11.72;77.08
63399;BME280;49533;-34.520;150.798;2022-09-03T02:08:34;101474.78;;;11.78;77.30
63399;BME280;49533;-34.520;150.798;2022-09-03T02:11:04;101475.53;;;11.89;77.87
63399;BME280;49533;-34.520;150.798;2022-09-03T02:13:40;101474.34;;;11.95;77.45
63399;BME280;49533;-34.520;150.798;2022-09-03T02:16:14;101459.53;;;12.01;77.53
63399;BME280;49533;-34.520;150.798;2022-09-03T02:18:50;101471.75;;;12.04;77.12
63399;BME280;49533;-34.520;150.798;2022-09-03T02:21:19;101474.13;;;12.10;77.25
63399;BME280;49533;-34.520;150.798;2022-09-03T02:23:47;101474.06;;;12.15;77.45
63399;BME280;49533;-34.520;150.798;2022-09-03T02:26:20;101465.59;;;12.17;77.16
63399;BME280;49533;-34.520;150.798;2022-09-03T02:28:48;101447.25;;;12.23;77.34
63399;BME280;49533;-34.520;150.798;2022-09-03T02:31:16;101468.75;;;12.24;76.66
63399;BME280;49533;-34.520;150.798;2022-09-03T02:33:45;101455.88;;;12.30;76.78
63399;BME280;49533;-34.520;150.798;2022-09-03T02:36:17;101446.28;;;12.32;76.67
63399;BME280;49533;-34.520;150.798;2022-09-03T02:38:46;101451.66;;;12.37;76.21
63399;BME280;49533;-34.520;150.798;2022-09-03T02:41:13;101447.53;;;12.40;75.89
63399;BME280;49533;-34.520;150.798;2022-09-03T02:43:47;101436.31;;;12.42;75.66
63399;BME280;49533;-34.520;150.798;2022-09-03T02:46:23;101439.56;;;12.44;75.57
63399;BME280;49533;-34.520;150.798;2022-09-03T02:48:53;101438.97;;;12.47;75.35
63399;BME280;49533;-34.520;150.798;2022-09-03T02:51:21;101429.91;;;12.51;75.14
63399;BME280;49533;-34.520;150.798;2022-09-03T02:53:48;101435.34;;;12.51;75.20
63399;BME280;49533;-34.520;150.798;2022-09-03T02:56:15;101433.16;;;12.53;74.53
63399;BME280;49533;-34.520;150.798;2022-09-03T02:58:42;101420.59;;;12.52;74.13
63399;BME280;49533;-34.520;150.798;2022-09-03T03:01:09;101424.38;;;12.56;74.19
63399;BME280;49533;-34.520;150.798;2022-09-03T03:03:36;101428.13;;;12.60;73.47
63399;BME280;49533;-34.520;150.798;2022-09-03T03:06:05;101435.47;;;12.60;73.08
63399;BME280;49533;-34.520;150.798;2022-09-03T03:08:32;101435.19;;;12.61;72.42
63399;BME280;49533;-34.520;150.798;2022-09-03T03:11:00;101422.06;;;12.64;72.28
63399;BME280;49533;-34.520;150.798;2022-09-03T03:13:29;101428.03;;;12.66;72.27
63399;BME280;49533;-34.520;150.798;2022-09-03T03:15:58;101426.63;;;12.68;72.03
63399;BME280;49533;-34.520;150.798;2022-09-03T03:18:25;101436.13;;;12.71;71.60
63399;BME280;49533;-34.520;150.798;2022-09-03T03:20:53;101432.91;;;12.69;70.81
63399;BME280;49533;-34.520;150.798;2022-09-03T03:23:21;101432.81;;;12.74;70.46
63399;BME280;49533;-34.520;150.798;2022-09-03T03:25:48;101430.28;;;12.77;70.91
63399;BME280;49533;-34.520;150.798;2022-09-03T03:28:18;101442.81;;;12.78;70.69
63399;BME280;49533;-34.520;150.798;2022-09-03T03:30:45;101437.06;;;12.80;70.70
63399;BME280;49533;-34.520;150.798;2022-09-03T03:33:13;101445.22;;;12.80;70.80
63399;BME280;49533;-34.520;150.798;2022-09-03T03:35:40;101437.28;;;12.83;70.52
63399;BME280;49533;-34.520;150.798;2022-09-03T03:38:08;101432.63;;;12.84;70.77
63399;BME280;49533;-34.520;150.798;2022-09-03T03:40:37;101454.97;;;12.86;70.30
63399;BME280;49533;-34.520;150.798;2022-09-03T03:43:04;101460.91;;;12.88;70.11
63399;BME280;49533;-34.520;150.798;2022-09-03T03:45:31;101445.06;;;12.90;70.12
63399;BME280;49533;-34.520;150.798;2022-09-03T03:47:58;101440.72;;;12.89;70.39
63399;BME280;49533;-34.520;150.798;2022-09-03T03:50:25;101451.03;;;12.92;69.49
63399;BME280;49533;-34.520;150.798;2022-09-03T03:52:53;101449.72;;;12.90;69.32
63399;BME280;49533;-34.520;150.798;2022-09-03T03:55:20;101454.34;;;12.89;69.50
63399;BME280;49533;-34.520;150.798;2022-09-03T03:57:48;101447.25;;;12.88;69.66
63399;BME280;49533;-34.520;150.798;2022-09-03T04:00:15;101435.25;;;12.89;69.16
63399;BME280;49533;-34.520;150.798;2022-09-03T04:02:42;101439.09;;;12.88;69.04
63399;BME280;49533;-34.520;150.798;2022-09-03T04:05:09;101432.53;;;12.89;68.58
63399;BME280;49533;-34.520;150.798;2022-09-03T04:07:36;101451.81;;;12.93;68.56
63399;BME280;49533;-34.520;150.798;2022-09-03T04:10:04;101450.41;;;12.95;68.21
63399;BME280;49533;-34.520;150.798;2022-09-03T04:12:31;101460.25;;;12.96;67.95
63399;BME280;49533;-34.520;150.798;2022-09-03T04:14:58;101455.88;;;12.95;67.80
63399;BME280;49533;-34.520;150.798;2022-09-03T04:17:26;101454.47;;;12.98;68.01
63399;BME280;49533;-34.520;150.798;2022-09-03T04:19:53;101467.81;;;12.99;67.67
63399;BME280;49533;-34.520;150.798;2022-09-03T04:22:20;101464.78;;;13.01;67.34
63399;BME280;49533;-34.520;150.798;2022-09-03T04:24:47;101467.22;;;13.02;66.75
63399;BME280;49533;-34.520;150.798;2022-09-03T04:27:14;101462.56;;;13.03;66.72
63399;BME280;49533;-34.520;150.798;2022-09-03T04:29:41;101461.75;;;13.02;66.40
63399;BME280;49533;-34.520;150.798;2022-09-03T04:32:08;101462.34;;;12.99;66.85
63399;BME280;49533;-34.520;150.798;2022-09-03T04:34:47;101466.19;;;12.98;66.78
63399;BME280;49533;-34.520;150.798;2022-09-03T04:37:14;101462.88;;;13.01;66.27
63399;BME280;49533;-34.520;150.798;2022-09-03T04:39:45;101460.44;;;13.00;65.82
63399;BME280;49533;-34.520;150.798;2022-09-03T04:42:12;101458.50;;;13.00;65.99
63399;BME280;49533;-34.520;150.798;2022-09-03T04:44:39;101450.66;;;12.99;65.89
63399;BME280;49533;-34.520;150.798;2022-09-03T04:47:06;101452.53;;;12.98;65.97
63399;BME280;49533;-34.520;150.798;2022-09-03T04:49:33;101451.44;;;12.99;66.15
63399;BME280;49533;-34.520;150.798;2022-09-03T04:52:01;101435.28;;;13.03;66.17
63399;BME280;49533;-34.520;150.798;2022-09-03T04:54:28;101422.94;;;13.05;66.05
63399;BME280;49533;-34.520;150.798;2022-09-03T04:56:55;101409.31;;;13.05;65.98
63399;BME280;49533;-34.520;150.798;2022-09-03T04:59:22;101408.50;;;13.05;65.90
63399;BME280;49533;-34.520;150.798;2022-09-03T05:01:49;101414.25;;;13.03;66.07
63399;BME280;49533;-34.520;150.798;2022-09-03T05:04:18;101427.78;;;13.09;66.16
63399;BME280;49533;-34.520;150.798;2022-09-03T05:06:46;101426.72;;;13.10;66.09
63399;BME280;49533;-34.520;150.798;2022-09-03T05:09:13;101437.31;;;13.11;65.72
63399;BME280;49533;-34.520;150.798;2022-09-03T05:11:40;101437.31;;;13.11;66.15
63399;BME280;49533;-34.520;150.798;2022-09-03T05:14:07;101450.66;;;13.13;65.61
63399;BME280;49533;-34.520;150.798;2022-09-03T05:16:37;101449.53;;;13.14;65.74
63399;BME280;49533;-34.520;150.798;2022-09-03T05:19:04;101455.50;;;13.16;65.44
63399;BME280;49533;-34.520;150.798;2022-09-03T05:21:33;101443.78;;;13.15;65.43
63399;BME280;49533;-34.520;150.798;2022-09-03T05:24:01;101447.81;;;13.18;65.41
63399;BME280;49533;-34.520;150.798;2022-09-03T05:26:30;101450.56;;;13.18;65.42
63399;BME280;49533;-34.520;150.798;2022-09-03T05:28:59;101452.16;;;13.19;65.34
63399;BME280;49533;-34.520;150.798;2022-09-03T05:31:28;101454.31;;;13.22;65.39
63399;BME280;49533;-34.520;150.798;2022-09-03T05:33:58;101443.41;;;13.22;65.58
63399;BME280;49533;-34.520;150.798;2022-09-03T05:36:29;101454.31;;;13.22;65.50
63399;BME280;49533;-34.520;150.798;2022-09-03T05:38:58;101457.34;;;13.20;65.49
63399;BME280;49533;-34.520;150.798;2022-09-03T05:41:26;101456.53;;;13.20;65.25
63399;BME280;49533;-34.520;150.798;2022-09-03T05:43:54;101477.56;;;13.19;64.66
63399;BME280;49533;-34.520;150.798;2022-09-03T05:46:26;101491.19;;;13.19;64.77
63399;BME280;49533;-34.520;150.798;2022-09-03T05:48:58;101500.78;;;13.17;64.83
63399;BME280;49533;-34.520;150.798;2022-09-03T05:51:26;101489.13;;;13.11;66.32
63399;BME280;49533;-34.520;150.798;2022-09-03T05:53:53;101494.50;;;13.02;67.66
63399;BME280;49533;-34.520;150.798;2022-09-03T05:56:22;101489.41;;;12.96;69.17
63399;BME280;49533;-34.520;150.798;2022-09-03T05:58:52;101496.88;;;12.90;70.79
63399;BME280;49533;-34.520;150.798;2022-09-03T06:01:21;101500.72;;;12.89;70.82
63399;BME280;49533;-34.520;150.798;2022-09-03T06:03:55;101508.47;;;12.82;71.91
63399;BME280;49533;-34.520;150.798;2022-09-03T06:06:24;101513.41;;;12.80;72.21
63399;BME280;49533;-34.520;150.798;2022-09-03T06:08:55;101516.13;;;12.80;72.49
63399;BME280;49533;-34.520;150.798;2022-09-03T06:11:24;101514.22;;;12.80;72.82
63399;BME280;49533;-34.520;150.798;2022-09-03T06:13:54;101518.44;;;12.73;73.48
63399;BME280;49533;-34.520;150.798;2022-09-03T06:16:22;101522.56;;;12.70;73.88
63399;BME280;49533;-34.520;150.798;2022-09-03T06:18:49;101534.38;;;12.66;73.76
63399;BME280;49533;-34.520;150.798;2022-09-03T06:21:16;101522.44;;;12.61;74.30
63399;BME280;49533;-34.520;150.798;2022-09-03T06:23:49;101516.91;;;12.67;73.75
63399;BME280;49533;-34.520;150.798;2022-09-03T06:26:17;101512.94;;;12.59;74.14
63399;BME280;49533;-34.520;150.798;2022-09-03T06:28:46;101517.56;;;12.58;74.19
63399;BME280;49533;-34.520;150.798;2022-09-03T06:31:16;101514.13;;;12.53;74.41
63399;BME280;49533;-34.520;150.798;2022-09-03T06:33:45;101510.28;;;12.54;74.84
63399;BME280;49533;-34.520;150.798;2022-09-03T06:36:15;101511.16;;;12.49;74.96
63399;BME280;49533;-34.520;150.798;2022-09-03T06:38:43;101498.88;;;12.33;75.47
63399;BME280;49533;-34.520;150.798;2022-09-03T06:41:14;101506.03;;;12.48;75.30
63399;BME280;49533;-34.520;150.798;2022-09-03T06:43:47;101500.94;;;12.41;75.86
63399;BME280;49533;-34.520;150.798;2022-09-03T06:46:17;101492.75;;;12.41;75.44
63399;BME280;49533;-34.520;150.798;2022-09-03T06:48:45;101475.28;;;12.42;75.17
63399;BME280;49533;-34.520;150.798;2022-09-03T06:51:15;101491.06;;;12.45;75.13
63399;BME280;49533;-34.520;150.798;2022-09-03T06:53:46;101498.94;;;12.47;75.34
63399;BME280;49533;-34.520;150.798;2022-09-03T06:56:17;101491.06;;;12.45;75.26
63399;BME280;49533;-34.520;150.798;2022-09-03T06:58:46;101492.75;;;12.41;75.19
63399;BME280;49533;-34.520;150.798;2022-09-03T07:01:16;101504.69;;;12.45;75.44
63399;BME280;49533;-34.520;150.798;2022-09-03T07:03:46;101512.88;;;12.45;75.51
63399;BME280;49533;-34.520;150.798;2022-09-03T07:06:16;101527.84;;;12.48;75.48
63399;BME280;49533;-34.520;150.798;2022-09-03T07:08:44;101525.38;;;12.46;75.54
63399;BME280;49533;-34.520;150.798;2022-09-03T07:11:14;101534.09;;;12.48;75.54
63399;BME280;49533;-34.520;150.798;2022-09-03T07:13:46;101523.03;;;12.58;74.70
63399;BME280;49533;-34.520;150.798;2022-09-03T07:16:15;101533.53;;;12.65;74.29
63399;BME280;49533;-34.520;150.798;2022-09-03T07:18:43;101527.81;;;12.67;73.77
63399;BME280;49533;-34.520;150.798;2022-09-03T07:21:12;101539.75;;;12.71;73.80
63399;BME280;49533;-34.520;150.798;2022-09-03T07:23:40;101540.25;;;12.73;73.40
63399;BME280;49533;-34.520;150.798;2022-09-03T07:26:09;101533.69;;;12.74;73.66
63399;BME280;49533;-34.520;150.798;2022-09-03T07:28:39;101537.22;;;12.74;73.25
63399;BME280;49533;-34.520;150.798;2022-09-03T07:31:12;101537.44;;;12.78;72.91
63399;BME280;49533;-34.520;150.798;2022-09-03T07:33:41;101533.63;;;12.79;73.21
63399;BME280;49533;-34.520;150.798;2022-09-03T07:36:10;101532.28;;;12.76;73.15
63399;BME280;49533;-34.520;150.798;2022-09-03T07:38:40;101525.72;;;12.77;72.59
63399;BME280;49533;-34.520;150.798;2022-09-03T07:41:08;101538.28;;;12.78;72.66
63399;BME280;49533;-34.520;150.798;2022-09-03T07:43:40;101538.28;;;12.78;72.42
63399;BME280;49533;-34.520;150.798;2022-09-03T07:46:09;101551.91;;;12.78;72.45
63399;BME280;49533;-34.520;150.798;2022-09-03T07:48:40;101551.59;;;12.80;72.30
63399;BME280;49533;-34.520;150.798;2022-09-03T07:51:08;101550.78;;;12.79;72.37
63399;BME280;49533;-34.520;150.798;2022-09-03T07:53:35;101554.63;;;12.78;72.07
63399;BME280;49533;-34.520;150.798;2022-09-03T07:56:05;101561.69;;;12.79;71.73
63399;BME280;49533;-34.520;150.798;2022-09-03T07:58:34;101569.06;;;12.79;71.90
63399;BME280;49533;-34.520;150.798;2022-09-03T08:01:06;101569.06;;;12.79;71.73
63399;BME280;49533;-34.520;150.798;2022-09-03T08:03:34;101560.88;;;12.79;71.64
63399;BME280;49533;-34.520;150.798;2022-09-03T08:06:04;101552.72;;;12.79;71.98
63399;BME280;49533;-34.520;150.798;2022-09-03T08:08:31;101562.22;;;12.81;71.72
63399;BME280;49533;-34.520;150.798;2022-09-03T08:11:08;101552.41;;;12.80;71.08
63399;BME280;49533;-34.520;150.798;2022-09-03T08:13:39;101565.75;;;12.82;71.30
63399;BME280;49533;-34.520;150.798;2022-09-03T08:16:11;101563.03;;;12.82;71.04
63399;BME280;49533;-34.520;150.798;2022-09-03T08:18:39;101564.13;;;12.81;70.89
63399;BME280;49533;-34.520;150.798;2022-09-03T08:21:10;101575.84;;;12.81;71.25
63399;BME280;49533;-34.520;150.798;2022-09-03T08:23:42;101573.41;;;12.80;71.09
63399;BME280;49533;-34.520;150.798;2022-09-03T08:26:11;101572.31;;;12.81;71.04
63399;BME280;49533;-34.520;150.798;2022-09-03T08:28:39;101574.22;;;12.80;71.04
63399;BME280;49533;-34.520;150.798;2022-09-03T08:31:10;101585.97;;;12.81;71.21
63399;BME280;49533;-34.520;150.798;2022-09-03T08:33:40;101583.22;;;12.81;71.41
63399;BME280;49533;-34.520;150.798;2022-09-03T08:36:12;101589.78;;;12.80;71.26
63399;BME280;49533;-34.520;150.798;2022-09-03T08:38:40;101575.06;;;12.81;70.99
63399;BME280;49533;-34.520;150.798;2022-09-03T08:41:12;101568.75;;;12.80;71.15
63399;BME280;49533;-34.520;150.798;2022-09-03T08:46:49;101571.81;;;12.79;71.48
63399;BME280;49533;-34.520;150.798;2022-09-03T08:49:24;101576.44;;;12.78;71.10
63399;BME280;49533;-34.520;150.798;2022-09-03T08:51:55;101577.25;;;12.79;71.19
63399;BME280;49533;-34.520;150.798;2022-09-03T08:54:26;101591.41;;;12.81;71.06
63399;BME280;49533;-34.520;150.798;2022-09-03T08:56:59;101600.69;;;12.80;71.04
63399;BME280;49533;-34.520;150.798;2022-09-03T08:59:29;101599.06;;;12.79;70.63
63399;BME280;49533;-34.520;150.798;2022-09-03T09:02:09;101596.34;;;12.79;71.15
63399;BME280;49533;-34.520;150.798;2022-09-03T09:05:02;101599.06;;;12.79;70.69
63399;BME280;49533;-34.520;150.798;2022-09-03T09:07:46;101590.66;;;12.75;70.77
63399;BME280;49533;-34.520;150.798;2022-09-03T09:10:40;101588.75;;;12.76;70.77
63399;BME280;49533;-34.520;150.798;2022-09-03T09:13:27;101591.16;;;12.77;70.73
63399;BME280;49533;-34.520;150.798;2022-09-03T09:16:18;101595.81;;;12.77;70.60
63399;BME280;49533;-34.520;150.798;2022-09-03T09:19:05;101591.97;;;12.78;71.02
63399;BME280;49533;-34.520;150.798;2022-09-03T09:21:42;101585.72;;;12.77;70.78
63399;BME280;49533;-34.520;150.798;2022-09-03T09:24:22;101583.00;;;12.77;70.68
63399;BME280;49533;-34.520;150.798;2022-09-03T09:26:59;101570.75;;;12.75;70.93
63399;BME280;49533;-34.520;150.798;2022-09-03T09:29:31;101568.03;;;12.75;70.87
63399;BME280;49533;-34.520;150.798;2022-09-03T09:31:58;101567.81;;;12.71;71.00
63399;BME280;49533;-34.520;150.798;2022-09-03T09:34:25;101576.81;;;12.72;71.21
63399;BME280;49533;-34.520;150.798;2022-09-03T09:36:55;101578.41;;;12.73;71.05
63399;BME280;49533;-34.520;150.798;2022-09-03T09:39:22;101601.88;;;12.74;70.98
63399;BME280;49533;-34.520;150.798;2022-09-03T09:42:05;101604.59;;;12.74;70.87
63399;BME280;49533;-34.520;150.798;2022-09-03T09:44:38;101605.69;;;12.73;70.84
63399;BME280;49533;-34.520;150.798;2022-09-03T09:47:12;101602.97;;;12.73;70.90
63399;BME280;49533;-34.520;150.798;2022-09-03T09:49:52;101597.81;;;12.71;71.00
63399;BME280;49533;-34.520;150.798;2022-09-03T09:52:19;101597.16;;;12.60;72.42
63399;BME280;49533;-34.520;150.798;2022-09-03T09:54:52;101594.06;;;12.48;73.18
63399;BME280;49533;-34.520;150.798;2022-09-03T09:57:23;101600.59;;;12.47;73.52
63399;BME280;49533;-34.520;150.798;2022-09-03T10:00:06;101606.50;;;12.54;72.81
63399;BME280;49533;-34.520;150.798;2022-09-03T10:02:35;101595.53;;;12.59;72.32
63399;BME280;49533;-34.520;150.798;2022-09-03T10:05:30;101581.28;;;12.62;72.35
63399;BME280;49533;-34.520;150.798;2022-09-03T10:08:01;101576.38;;;12.65;72.15
63399;BME280;49533;-34.520;150.798;2022-09-03T10:10:33;101572.56;;;12.66;71.77
63399;BME280;49533;-34.520;150.798;2022-09-03T10:13:08;101576.88;;;12.67;71.54
63399;BME280;49533;-34.520;150.798;2022-09-03T10:15:49;101572.56;;;12.66;71.67
63399;BME280;49533;-34.520;150.798;2022-09-03T10:18:29;101580.72;;;12.66;71.75
63399;BME280;49533;-34.520;150.798;2022-09-03T10:21:09;101573.34;;;12.66;71.59
63399;BME280;49533;-34.520;150.798;2022-09-03T10:23:53;101568.72;;;12.67;71.41
63399;BME280;49533;-34.520;150.798;2022-09-03T10:26:23;101556.19;;;12.66;71.16
63399;BME280;49533;-34.520;150.798;2022-09-03T10:28:58;101560.31;;;12.63;71.91
63399;BME280;49533;-34.520;150.798;2022-09-03T10:31:37;101562.22;;;12.62;71.68
63399;BME280;49533;-34.520;150.798;2022-09-03T10:34:28;101555.59;;;12.69;71.93
63399;BME280;49533;-34.520;150.798;2022-09-03T10:37:18;101551.47;;;12.71;72.45
63399;BME280;49533;-34.520;150.798;2022-09-03T10:40:05;101560.66;;;12.75;73.00
63399;BME280;49533;-34.520;150.798;2022-09-03T10:42:47;101561.19;;;12.77;73.04
63399;BME280;49533;-34.520;150.798;2022-09-03T10:45:46;101563.31;;;12.80;73.65
63399;BME280;49533;-34.520;150.798;2022-09-03T10:48:33;101570.09;;;12.83;73.97
63399;BME280;49533;-34.520;150.798;2022-09-03T10:51:13;101571.41;;;12.86;73.52
63399;BME280;49533;-34.520;150.798;2022-09-03T10:56:56;101567.59;;;12.87;73.90
63399;BME280;49533;-34.520;150.798;2022-09-03T10:59:45;101573.84;;;12.87;74.33
63399;BME280;49533;-34.520;150.798;2022-09-03T11:05:05;101570.84;;;12.89;74.33
63399;BME280;49533;-34.520;150.798;2022-09-03T11:07:39;101579.81;;;12.89;74.33
63399;BME280;49533;-34.520;150.798;2022-09-03T11:10:19;101588.81;;;12.90;74.23
63399;BME280;49533;-34.520;150.798;2022-09-03T11:13:02;101582.56;;;12.89;74.09
63399;BME280;49533;-34.520;150.798;2022-09-03T11:15:35;101580.34;;;12.91;74.37
63399;BME280;49533;-34.520;150.798;2022-09-03T11:18:14;101584.16;;;12.90;74.14
63399;BME280;49533;-34.520;150.798;2022-09-03T11:20:43;101576.28;;;12.89;74.26
63399;BME280;49533;-34.520;150.798;2022-09-03T11:23:11;101578.72;;;12.90;74.14
63399;BME280;49533;-34.520;150.798;2022-09-03T11:25:45;101567.34;;;12.83;74.22
63399;BME280;49533;-34.520;150.798;2022-09-03T11:28:37;101578.72;;;12.90;74.01
63399;BME280;49533;-34.520;150.798;2022-09-03T11:34:12;101564.53;;;12.88;74.29
63399;BME280;49533;-34.520;150.798;2022-09-03T11:36:39;101554.66;;;12.92;74.28
63399;BME280;49533;-34.520;150.798;2022-09-03T11:39:19;101555.47;;;12.93;74.09
63399;BME280;49533;-34.520;150.798;2022-09-03T11:41:59;101559.63;;;12.90;73.89
63399;BME280;49533;-34.520;150.798;2022-09-03T11:44:39;101549.81;;;12.89;74.29
63399;BME280;49533;-34.520;150.798;2022-09-03T11:47:37;101541.13;;;12.87;73.91
63399;BME280;49533;-34.520;150.798;2022-09-03T11:53:08;101533.22;;;12.86;73.91
63399;BME280;49533;-34.520;150.798;2022-09-03T11:58:33;101539.50;;;12.86;73.59
63399;BME280;49533;-34.520;150.798;2022-09-03T12:01:03;101538.69;;;12.86;73.51
63399;BME280;49533;-34.520;150.798;2022-09-03T12:03:53;101537.06;;;12.84;73.72
63399;BME280;49533;-34.520;150.798;2022-09-03T12:09:37;101533.53;;;12.84;73.76
63399;BME280;49533;-34.520;150.798;2022-09-03T12:17:56;101547.78;;;12.81;73.72
63399;BME280;49533;-34.520;150.798;2022-09-03T12:20:46;101543.13;;;12.81;73.16
63399;BME280;49533;-34.520;150.798;2022-09-03T12:23:43;101539.59;;;12.81;73.29
63399;BME280;49533;-34.520;150.798;2022-09-03T12:26:17;101542.31;;;12.81;73.23
63399;BME280;49533;-34.520;150.798;2022-09-03T12:28:50;101519.66;;;12.80;73.52
63399;BME280;49533;-34.520;150.798;2022-09-03T12:36:22;101535.53;;;12.78;73.09
63399;BME280;49533;-34.520;150.798;2022-09-03T12:38:50;101528.16;;;12.79;73.09
63399;BME280;49533;-34.520;150.798;2022-09-03T12:41:28;101525.72;;;12.77;73.45
63399;BME280;49533;-34.520;150.798;2022-09-03T12:43:58;101512.09;;;12.77;73.46
63399;BME280;49533;-34.520;150.798;2022-09-03T12:46:31;101510.16;;;12.78;73.22
63399;BME280;49533;-34.520;150.798;2022-09-03T12:49:04;101511.56;;;12.75;73.00
63399;BME280;49533;-34.520;150.798;2022-09-03T12:51:41;101520.88;;;12.74;73.24
63399;BME280;49533;-34.520;150.798;2022-09-03T12:54:10;101525.53;;;12.74;73.12
63399;BME280;49533;-34.520;150.798;2022-09-03T12:56:48;101521.16;;;12.73;72.72
63399;BME280;49533;-34.520;150.798;2022-09-03T12:59:20;101518.44;;;12.73;72.91
63399;BME280;49533;-34.520;150.798;2022-09-03T13:01:53;101517.63;;;12.72;73.07
63399;BME280;49533;-34.520;150.798;2022-09-03T13:04:26;101523.06;;;12.72;72.92
63399;BME280;49533;-34.520;150.798;2022-09-03T13:09:40;101510.56;;;12.71;72.69
63399;BME280;49533;-34.520;150.798;2022-09-03T13:12:20;101520.66;;;12.71;72.97
63399;BME280;49533;-34.520;150.798;2022-09-03T13:14:48;101511.72;;;12.65;72.97
63399;BME280;49533;-34.520;150.798;2022-09-03T13:25:20;101515.78;;;12.68;72.58
63399;BME280;49533;-34.520;150.798;2022-09-03T13:27:58;101514.97;;;12.67;72.56
63399;BME280;49533;-34.520;150.798;2022-09-03T13:33:42;101510.66;;;12.66;72.66
63399;BME280;49533;-34.520;150.798;2022-09-03T13:38:53;101516.38;;;12.65;72.76
63399;BME280;49533;-34.520;150.798;2022-09-03T13:44:44;101518.31;;;12.64;72.68
63399;BME280;49533;-34.520;150.798;2022-09-03T13:47:31;101513.97;;;12.63;72.61
63399;BME280;49533;-34.520;150.798;2022-09-03T13:50:07;101529.50;;;12.62;72.61
63399;BME280;49533;-34.520;150.798;2022-09-03T13:53:29;101524.34;;;12.61;72.15
63399;BME280;49533;-34.520;150.798;2022-09-03T13:56:13;101516.19;;;12.61;72.62